RKSO/OSN METAR and TAF weather

Enter ICAO airport designator
Station Type Date Time Source
RKSO METAR 2019/11/21 02:58 UTC NOAA

RKSO 210258Z 00000KT 7SM SCT150 BKN200 07/M06 A3050 RMK AO2A SLP332 T00731060 $


Station Type Date Time Source
RKSO Decoded METAR 2019/11/21 02:58 UTC NOAA

Osan Ab, Korea, South (RKSO) 37-06N 127-02E 12M
Nov 20, 2019 - 09:58 PM EST / 2019.11.21 0258 UTC
Wind: Calm:0
Visibility: 7 mile(s):0
Sky conditions: mostly cloudy
Temperature: 45.1 F (7.3 C)
Dew Point: 21.2 F (-6.0 C)
Relative Humidity: 38%
Pressure (altimeter): 30.5 in. Hg (1032 hPa)
ob: RKSO 210258Z 00000KT 7SM SCT150 BKN200 07/M06 A3050 RMK AO2A SLP332 T00731060
cycle: 3

Station Type Date Time Source
RKSO TAF 2019/11/21 01:33 UTC NOAA

TAF TAF RKSO 210100Z 2101/2207 07009KT 9999 BKN180 QNH3045INS
BECMG 2111/2112 09009KT 9999 FEW050 SCT060 BKN100 QNH3040INS
BECMG 2117/2118 09006KT 9999 FEW110 SCT120 QNH3029INS TX06/2106Z TN02/2122Z

Example: see airport list